메인 페이지
METAR-TAF:

METAR-TAF

공항 :

테헤란 메흐라바드 국제공항

테헤란, 이란

위도: 35-41N, 경도: 051-21E, 고도: 1204m

현재 날씨관측

예보는 34분 전, 21:30시(UTC)에 발표되었습니다.
서남서4kt
온도 8°C
습도 53%
기압 1016 hPa
시정 10km 이상
고도 3500ft 상공 구름 조금
고도 10000ft 상공 구름 많음

METAR: OIII 192130Z 25004KT 9999 FEW035 BKN100 08/M01 Q1015 A2999

시각: 01:34 (22:04 UTC)

예보

예보는 4 시간 34분 전, 17:30시(UTC)에 발표되었습니다.
예보 대상 시간: 19일 18시부터 20일 24시까지 (UTC)
북서8kt
시정: 7000m
고도 3500ft 상공 구름 조금
고도 10000ft 상공 구름 많음
일시적
19일 23시부터 20일 06시까지 (UTC)
고도 3000ft 상공 구름 조금, 적란운.
고도 3500ft 상공 구름 보통
고도 9000ft 상공 흐림
확률 40%
50시부터 00시까지 (UTC)
소나기
전환 중
20일 09시부터 20일 11시까지 (UTC)
10kt
고도 3000ft 상공 구름 조금, 적란운.
고도 3500ft 상공 구름 보통
고도 10000ft 상공 흐림
일시적
20일 12시부터 20일 18시까지 (UTC)
시정: 4000m
확률 40%
TS시부터 시까지 (UTC)
확률 40%
20일 21시부터 20일 24시까지 (UTC)
시정: 5000m
박무

TAF: OIII 191730Z 1918/2024 31008KT 7000 FEW035 BKN100 TEMPO 1923/2006 FEW030CB SCT035 OVC090 PROB40 5000 SHRA BECMG 2009/2011 27010KT FEW030CB SCT035 OVC100 TEMPO 2012/2018 4000 RA PROB40 TS PROB40 2021/2024 5000 BR

4,000개 이상의 공항 관측 자료 및 예보 (METAR 및 TAF 보고).

지도상에서 검색 가능한 기상관측소가 노란 점과 빨간 점으로 표시되어 있습니다.

기상관측소 명을 보려면 표시 위로 마우스를 이동하세요.

날씨 관측과 예보를 보려면 클릭하세요.

지도 변경 : 확대하려면 엑스 표시가 있는 녹색 버튼, 축소하려면 빼기 표시가 있는 녹색 버튼, 다음 페이지의 지도를 보려면 녹색 화살표를 클릭하세요.


METAR-TAF: